CheckWX is a tool to help pilots better visualize weather data.  It is not intended as a substitute for an official pre-flight weather briefing.

04:39:46 UTC

LCLK TAF
Larnaca International Airport
Larnarca, Cyprus
TAF LCLK 222330Z 2300/2324 03007KT CAVOK BECMG 2308/2312 15010KT BECMG 2315/2319 33006KT

Mar-23@
00:00 UTC

Mar-23 @ 00:00 UTC

Mar-23@
08:00 UTC

Mar-23 @ 08:00 UTC

TAF LCLK 222330Z 2300/2324 03007KT CAVOK
Wind
  • 030° at 7 KTS
Conditions
No significant weather
Cloud Levels
  • No significant clouds

Mar-23@
08:00 UTC

Mar-23 @ 08:00 UTC

Mar-23@
15:00 UTC

Mar-23 @ 15:00 UTC

BECMG 2308/2312 15010KT

Becoming

Becoming Conditions expected by Sat, Mar 23, 2019 @ 12:00 UTC

Wind
  • 150° at 10 KTS
Conditions
No significant weather
Cloud Levels
  • No significant clouds

Mar-23@
15:00 UTC

Mar-23 @ 15:00 UTC

Mar-24@
00:00 UTC

Mar-24 @ 00:00 UTC

BECMG 2315/2319 33006KT

Becoming

Becoming Conditions expected by Sat, Mar 23, 2019 @ 19:00 UTC

Wind
  • 330° at 6 KTS
Conditions
No significant weather
Cloud Levels
  • No significant clouds